Alpena, Arkansas
Current Conditions -  °F | °C
As of 11:36 AM on Friday 19 Dec 2014 (Local Time) from KHRO Reporting Station
Light Rain Light Rain  
Wind Chill: -1°   Ceiling: 200
Heat Index:   Visibility: 1.5mi
Dew Point:   Wind: 8mph
Humidity: 100%   Direction: 140°SE
Pressure: 30.24"   Gusts: NA
Location:  36.29°N, 93.29°W
Report Text: KHRO 191736Z AUTO 14007KT 1 1/2SM -RA BR OVC002 03/03 A3024 RMK AO2 RAB28 P0000 T00280028
Loading
Personal Weather Stations






























Interactive Weather Map New forecast layout! Learn more

10-Day Weather Forecast

Advertisements
Track Severe Weather on mobile